sensor_id;sensor_type;location;lat;lon;timestamp;temperature;humidity
21306;DHT22;10812;51.838;5.838;2023-02-28T00:01:15;0.20;99.90
21306;DHT22;10812;51.838;5.838;2023-02-28T00:03:43;0.10;99.90
21306;DHT22;10812;51.838;5.838;2023-02-28T00:06:11;0.10;99.90
21306;DHT22;10812;51.838;5.838;2023-02-28T00:08:39;0.10;99.90
21306;DHT22;10812;51.838;5.838;2023-02-28T00:11:09;0.30;99.90
21306;DHT22;10812;51.838;5.838;2023-02-28T00:13:41;0.40;99.90
21306;DHT22;10812;51.838;5.838;2023-02-28T00:16:12;0.50;99.90
21306;DHT22;10812;51.838;5.838;2023-02-28T00:18:41;0.60;99.90
21306;DHT22;10812;51.838;5.838;2023-02-28T00:21:10;0.70;99.90
21306;DHT22;10812;51.838;5.838;2023-02-28T00:23:38;0.70;99.90
21306;DHT22;10812;51.838;5.838;2023-02-28T00:26:06;0.70;99.90
21306;DHT22;10812;51.838;5.838;2023-02-28T00:28:34;0.80;99.90
21306;DHT22;10812;51.838;5.838;2023-02-28T00:31:04;0.70;99.90
21306;DHT22;10812;51.838;5.838;2023-02-28T00:33:32;0.60;99.90
21306;DHT22;10812;51.838;5.838;2023-02-28T00:36:05;0.50;99.90
21306;DHT22;10812;51.838;5.838;2023-02-28T00:38:34;0.50;99.90
21306;DHT22;10812;51.838;5.838;2023-02-28T00:41:02;0.50;99.90
21306;DHT22;10812;51.838;5.838;2023-02-28T00:43:32;0.50;99.90
21306;DHT22;10812;51.838;5.838;2023-02-28T00:46:01;0.40;99.90
21306;DHT22;10812;51.838;5.838;2023-02-28T00:48:31;0.30;99.90
21306;DHT22;10812;51.838;5.838;2023-02-28T00:50:59;0.50;99.90
21306;DHT22;10812;51.838;5.838;2023-02-28T00:53:28;0.60;99.90
21306;DHT22;10812;51.838;5.838;2023-02-28T00:55:56;0.60;99.90
21306;DHT22;10812;51.838;5.838;2023-02-28T00:58:25;0.70;99.90
21306;DHT22;10812;51.838;5.838;2023-02-28T01:00:53;0.70;99.90
21306;DHT22;10812;51.838;5.838;2023-02-28T01:03:23;0.70;99.90
21306;DHT22;10812;51.838;5.838;2023-02-28T01:05:52;0.70;99.90
21306;DHT22;10812;51.838;5.838;2023-02-28T01:08:21;0.70;99.90
21306;DHT22;10812;51.838;5.838;2023-02-28T01:10:49;0.80;99.90
21306;DHT22;10812;51.838;5.838;2023-02-28T01:13:17;0.80;99.90
21306;DHT22;10812;51.838;5.838;2023-02-28T01:15:48;0.90;99.90
21306;DHT22;10812;51.838;5.838;2023-02-28T01:18:17;0.90;99.90
21306;DHT22;10812;51.838;5.838;2023-02-28T01:20:45;1.00;99.90
21306;DHT22;10812;51.838;5.838;2023-02-28T01:23:15;1.10;99.90
21306;DHT22;10812;51.838;5.838;2023-02-28T01:25:43;1.10;99.90
21306;DHT22;10812;51.838;5.838;2023-02-28T01:28:11;1.10;99.90
21306;DHT22;10812;51.838;5.838;2023-02-28T01:30:39;1.20;99.90
21306;DHT22;10812;51.838;5.838;2023-02-28T01:33:07;1.20;99.90
21306;DHT22;10812;51.838;5.838;2023-02-28T01:35:36;1.20;99.90
21306;DHT22;10812;51.838;5.838;2023-02-28T01:38:04;1.10;99.90
21306;DHT22;10812;51.838;5.838;2023-02-28T01:40:49;1.20;99.90
21306;DHT22;10812;51.838;5.838;2023-02-28T01:43:21;1.20;99.90
21306;DHT22;10812;51.838;5.838;2023-02-28T01:45:50;1.10;99.90
21306;DHT22;10812;51.838;5.838;2023-02-28T01:48:19;1.20;99.90
21306;DHT22;10812;51.838;5.838;2023-02-28T01:50:48;1.20;99.90
21306;DHT22;10812;51.838;5.838;2023-02-28T01:53:19;1.20;99.90
21306;DHT22;10812;51.838;5.838;2023-02-28T01:55:52;1.20;99.90
21306;DHT22;10812;51.838;5.838;2023-02-28T01:58:21;1.20;99.90
21306;DHT22;10812;51.838;5.838;2023-02-28T02:00:49;1.20;99.90
21306;DHT22;10812;51.838;5.838;2023-02-28T02:03:19;1.30;99.90
21306;DHT22;10812;51.838;5.838;2023-02-28T02:05:48;1.20;99.90
21306;DHT22;10812;51.838;5.838;2023-02-28T02:08:19;1.20;99.90
21306;DHT22;10812;51.838;5.838;2023-02-28T02:10:51;1.20;99.90
21306;DHT22;10812;51.838;5.838;2023-02-28T02:13:33;1.30;99.90
21306;DHT22;10812;51.838;5.838;2023-02-28T02:16:11;1.20;99.90
21306;DHT22;10812;51.838;5.838;2023-02-28T02:18:45;1.20;99.90
21306;DHT22;10812;51.838;5.838;2023-02-28T02:21:32;1.20;99.90
21306;DHT22;10812;51.838;5.838;2023-02-28T02:24:20;1.20;99.90
21306;DHT22;10812;51.838;5.838;2023-02-28T02:27:08;1.10;99.90
21306;DHT22;10812;51.838;5.838;2023-02-28T02:29:45;1.20;99.90
21306;DHT22;10812;51.838;5.838;2023-02-28T02:32:45;1.30;99.90
21306;DHT22;10812;51.838;5.838;2023-02-28T02:35:19;1.30;99.90
21306;DHT22;10812;51.838;5.838;2023-02-28T02:37:58;1.30;99.90
21306;DHT22;10812;51.838;5.838;2023-02-28T02:40:35;1.30;99.90
21306;DHT22;10812;51.838;5.838;2023-02-28T02:43:09;1.30;99.90
21306;DHT22;10812;51.838;5.838;2023-02-28T02:45:43;1.30;99.90
21306;DHT22;10812;51.838;5.838;2023-02-28T02:48:16;1.40;99.90
21306;DHT22;10812;51.838;5.838;2023-02-28T02:50:51;1.30;99.90
21306;DHT22;10812;51.838;5.838;2023-02-28T02:53:24;1.30;99.90
21306;DHT22;10812;51.838;5.838;2023-02-28T02:55:55;1.40;99.90
21306;DHT22;10812;51.838;5.838;2023-02-28T02:58:26;1.50;99.90
21306;DHT22;10812;51.838;5.838;2023-02-28T03:06:28;1.50;99.90
21306;DHT22;10812;51.838;5.838;2023-02-28T03:08:57;1.50;99.90
21306;DHT22;10812;51.838;5.838;2023-02-28T03:11:25;1.40;99.90
21306;DHT22;10812;51.838;5.838;2023-02-28T03:14:18;1.40;99.90
21306;DHT22;10812;51.838;5.838;2023-02-28T03:17:04;1.40;99.90
21306;DHT22;10812;51.838;5.838;2023-02-28T03:19:51;1.50;99.90
21306;DHT22;10812;51.838;5.838;2023-02-28T03:22:45;1.40;99.90
21306;DHT22;10812;51.838;5.838;2023-02-28T03:25:22;1.40;99.90
21306;DHT22;10812;51.838;5.838;2023-02-28T03:27:59;1.30;99.90
21306;DHT22;10812;51.838;5.838;2023-02-28T03:30:35;1.30;99.90
21306;DHT22;10812;51.838;5.838;2023-02-28T03:33:06;1.30;99.90
21306;DHT22;10812;51.838;5.838;2023-02-28T03:35:38;1.30;99.90
21306;DHT22;10812;51.838;5.838;2023-02-28T03:38:13;1.30;99.90
21306;DHT22;10812;51.838;5.838;2023-02-28T03:40:46;1.30;99.90
21306;DHT22;10812;51.838;5.838;2023-02-28T03:43:21;1.30;99.90
21306;DHT22;10812;51.838;5.838;2023-02-28T03:45:51;1.30;99.90
21306;DHT22;10812;51.838;5.838;2023-02-28T03:48:22;1.30;99.90
21306;DHT22;10812;51.838;5.838;2023-02-28T03:50:54;1.30;99.90
21306;DHT22;10812;51.838;5.838;2023-02-28T03:53:28;1.30;99.90
21306;DHT22;10812;51.838;5.838;2023-02-28T03:55:59;1.30;99.90
21306;DHT22;10812;51.838;5.838;2023-02-28T03:58:35;1.30;99.90
21306;DHT22;10812;51.838;5.838;2023-02-28T04:01:09;1.30;99.90
21306;DHT22;10812;51.838;5.838;2023-02-28T04:03:38;1.30;99.90
21306;DHT22;10812;51.838;5.838;2023-02-28T04:06:12;1.30;99.90
21306;DHT22;10812;51.838;5.838;2023-02-28T04:08:43;1.30;99.90
21306;DHT22;10812;51.838;5.838;2023-02-28T04:11:18;1.30;99.90
21306;DHT22;10812;51.838;5.838;2023-02-28T04:13:48;1.30;99.90
21306;DHT22;10812;51.838;5.838;2023-02-28T04:16:16;1.30;99.90
21306;DHT22;10812;51.838;5.838;2023-02-28T04:19:00;1.30;99.90
21306;DHT22;10812;51.838;5.838;2023-02-28T04:21:31;1.30;99.90
21306;DHT22;10812;51.838;5.838;2023-02-28T04:24:01;1.40;99.90
21306;DHT22;10812;51.838;5.838;2023-02-28T04:26:30;1.40;99.90
21306;DHT22;10812;51.838;5.838;2023-02-28T04:28:59;1.40;99.90
21306;DHT22;10812;51.838;5.838;2023-02-28T04:31:27;1.40;99.90
21306;DHT22;10812;51.838;5.838;2023-02-28T04:33:56;1.40;99.90
21306;DHT22;10812;51.838;5.838;2023-02-28T04:36:24;1.40;99.90
21306;DHT22;10812;51.838;5.838;2023-02-28T04:38:52;1.50;99.90
21306;DHT22;10812;51.838;5.838;2023-02-28T04:41:22;1.50;99.90
21306;DHT22;10812;51.838;5.838;2023-02-28T04:43:51;1.50;99.90
21306;DHT22;10812;51.838;5.838;2023-02-28T04:46:19;1.50;99.90
21306;DHT22;10812;51.838;5.838;2023-02-28T04:48:47;1.50;99.90
21306;DHT22;10812;51.838;5.838;2023-02-28T04:51:17;1.50;99.90
21306;DHT22;10812;51.838;5.838;2023-02-28T04:53:46;1.50;99.90
21306;DHT22;10812;51.838;5.838;2023-02-28T04:56:16;1.50;99.90
21306;DHT22;10812;51.838;5.838;2023-02-28T04:58:46;1.50;99.90
21306;DHT22;10812;51.838;5.838;2023-02-28T05:01:21;1.50;99.90
21306;DHT22;10812;51.838;5.838;2023-02-28T05:03:50;1.50;99.90
21306;DHT22;10812;51.838;5.838;2023-02-28T05:06:20;1.50;99.90
21306;DHT22;10812;51.838;5.838;2023-02-28T05:08:50;1.50;99.90
21306;DHT22;10812;51.838;5.838;2023-02-28T05:11:20;1.50;99.90
21306;DHT22;10812;51.838;5.838;2023-02-28T05:13:51;1.50;99.90
21306;DHT22;10812;51.838;5.838;2023-02-28T05:16:20;1.50;99.90
21306;DHT22;10812;51.838;5.838;2023-02-28T05:18:48;1.40;99.90
21306;DHT22;10812;51.838;5.838;2023-02-28T05:21:27;1.50;99.90
21306;DHT22;10812;51.838;5.838;2023-02-28T05:23:58;1.50;99.90
21306;DHT22;10812;51.838;5.838;2023-02-28T05:26:26;1.50;99.90
21306;DHT22;10812;51.838;5.838;2023-02-28T05:28:56;1.50;99.90
21306;DHT22;10812;51.838;5.838;2023-02-28T05:38:56;1.50;99.90
21306;DHT22;10812;51.838;5.838;2023-02-28T05:41:24;1.50;99.90
21306;DHT22;10812;51.838;5.838;2023-02-28T05:43:53;1.50;99.90
21306;DHT22;10812;51.838;5.838;2023-02-28T05:46:23;1.50;99.90
21306;DHT22;10812;51.838;5.838;2023-02-28T05:48:54;1.50;99.90
21306;DHT22;10812;51.838;5.838;2023-02-28T05:51:29;1.50;99.90
21306;DHT22;10812;51.838;5.838;2023-02-28T05:54:01;1.50;99.90
21306;DHT22;10812;51.838;5.838;2023-02-28T05:56:29;1.50;99.90
21306;DHT22;10812;51.838;5.838;2023-02-28T05:58:57;1.50;99.90
21306;DHT22;10812;51.838;5.838;2023-02-28T06:01:33;1.50;99.90
21306;DHT22;10812;51.838;5.838;2023-02-28T06:04:03;1.50;99.90
21306;DHT22;10812;51.838;5.838;2023-02-28T06:06:32;1.60;99.90
21306;DHT22;10812;51.838;5.838;2023-02-28T06:09:03;1.60;99.90
21306;DHT22;10812;51.838;5.838;2023-02-28T06:11:31;1.60;99.90
21306;DHT22;10812;51.838;5.838;2023-02-28T06:14:00;1.60;99.90
21306;DHT22;10812;51.838;5.838;2023-02-28T06:16:30;1.70;99.90
21306;DHT22;10812;51.838;5.838;2023-02-28T06:19:02;1.70;99.90
21306;DHT22;10812;51.838;5.838;2023-02-28T06:21:30;1.70;99.90
21306;DHT22;10812;51.838;5.838;2023-02-28T06:23:59;1.60;99.90
21306;DHT22;10812;51.838;5.838;2023-02-28T06:26:27;1.70;99.90
21306;DHT22;10812;51.838;5.838;2023-02-28T06:28:56;1.90;99.90
21306;DHT22;10812;51.838;5.838;2023-02-28T06:31:24;1.90;99.90
21306;DHT22;10812;51.838;5.838;2023-02-28T06:33:52;1.80;99.90
21306;DHT22;10812;51.838;5.838;2023-02-28T06:36:22;1.70;99.90
21306;DHT22;10812;51.838;5.838;2023-02-28T06:38:51;1.70;99.90
21306;DHT22;10812;51.838;5.838;2023-02-28T06:41:22;1.80;99.90
21306;DHT22;10812;51.838;5.838;2023-02-28T06:43:51;1.90;99.90
21306;DHT22;10812;51.838;5.838;2023-02-28T06:46:20;1.90;99.90
21306;DHT22;10812;51.838;5.838;2023-02-28T06:48:48;2.00;99.90
21306;DHT22;10812;51.838;5.838;2023-02-28T06:51:19;2.00;99.90
21306;DHT22;10812;51.838;5.838;2023-02-28T06:53:50;1.90;99.90
21306;DHT22;10812;51.838;5.838;2023-02-28T06:56:19;1.90;99.90
21306;DHT22;10812;51.838;5.838;2023-02-28T06:58:48;1.90;99.90
21306;DHT22;10812;51.838;5.838;2023-02-28T07:01:17;2.00;99.90
21306;DHT22;10812;51.838;5.838;2023-02-28T07:03:46;2.00;99.90
21306;DHT22;10812;51.838;5.838;2023-02-28T07:06:19;1.90;99.90
21306;DHT22;10812;51.838;5.838;2023-02-28T07:08:51;1.90;99.90
21306;DHT22;10812;51.838;5.838;2023-02-28T07:11:22;1.90;99.90
21306;DHT22;10812;51.838;5.838;2023-02-28T07:13:52;1.90;99.90
21306;DHT22;10812;51.838;5.838;2023-02-28T07:16:21;1.90;99.90
21306;DHT22;10812;51.838;5.838;2023-02-28T07:18:52;1.90;99.90
21306;DHT22;10812;51.838;5.838;2023-02-28T07:21:20;1.90;99.90
21306;DHT22;10812;51.838;5.838;2023-02-28T07:23:50;2.00;99.90
21306;DHT22;10812;51.838;5.838;2023-02-28T07:26:20;2.00;99.90
21306;DHT22;10812;51.838;5.838;2023-02-28T07:28:48;2.20;99.90
21306;DHT22;10812;51.838;5.838;2023-02-28T07:31:17;2.20;99.90
21306;DHT22;10812;51.838;5.838;2023-02-28T07:33:45;2.40;99.90
21306;DHT22;10812;51.838;5.838;2023-02-28T07:36:16;3.20;99.90
21306;DHT22;10812;51.838;5.838;2023-02-28T07:38:46;4.40;99.90
21306;DHT22;10812;51.838;5.838;2023-02-28T07:41:19;6.10;99.90
21306;DHT22;10812;51.838;5.838;2023-02-28T07:43:47;8.20;99.90
21306;DHT22;10812;51.838;5.838;2023-02-28T07:46:16;9.00;99.90
21306;DHT22;10812;51.838;5.838;2023-02-28T07:48:47;9.50;99.90
21306;DHT22;10812;51.838;5.838;2023-02-28T07:51:15;9.70;99.00
21306;DHT22;10812;51.838;5.838;2023-02-28T07:53:43;10.10;98.10
21306;DHT22;10812;51.838;5.838;2023-02-28T07:56:11;9.50;98.00
21306;DHT22;10812;51.838;5.838;2023-02-28T07:58:40;10.00;96.60
21306;DHT22;10812;51.838;5.838;2023-02-28T08:01:10;10.50;95.30
21306;DHT22;10812;51.838;5.838;2023-02-28T08:03:39;10.10;94.60
21306;DHT22;10812;51.838;5.838;2023-02-28T08:06:14;9.90;95.50
21306;DHT22;10812;51.838;5.838;2023-02-28T08:08:43;9.50;95.20
21306;DHT22;10812;51.838;5.838;2023-02-28T08:11:11;9.30;95.60
21306;DHT22;10812;51.838;5.838;2023-02-28T08:13:40;8.70;96.30
21306;DHT22;10812;51.838;5.838;2023-02-28T08:16:12;8.70;95.60
21306;DHT22;10812;51.838;5.838;2023-02-28T08:18:42;9.80;94.00
21306;DHT22;10812;51.838;5.838;2023-02-28T08:21:10;9.80;93.60
21306;DHT22;10812;51.838;5.838;2023-02-28T08:23:39;9.50;93.50
21306;DHT22;10812;51.838;5.838;2023-02-28T08:26:07;9.50;93.30
21306;DHT22;10812;51.838;5.838;2023-02-28T08:28:35;10.00;92.90
21306;DHT22;10812;51.838;5.838;2023-02-28T08:31:09;10.30;92.00
21306;DHT22;10812;51.838;5.838;2023-02-28T08:33:37;9.80;91.80
21306;DHT22;10812;51.838;5.838;2023-02-28T08:36:08;9.10;92.00
21306;DHT22;10812;51.838;5.838;2023-02-28T08:38:36;8.60;92.50
21306;DHT22;10812;51.838;5.838;2023-02-28T08:41:07;7.60;93.40
21306;DHT22;10812;51.838;5.838;2023-02-28T08:43:35;7.80;94.10
21306;DHT22;10812;51.838;5.838;2023-02-28T08:46:05;7.70;93.60
21306;DHT22;10812;51.838;5.838;2023-02-28T08:48:35;8.40;93.70
21306;DHT22;10812;51.838;5.838;2023-02-28T08:51:06;9.50;92.00
21306;DHT22;10812;51.838;5.838;2023-02-28T08:53:36;9.70;91.10
21306;DHT22;10812;51.838;5.838;2023-02-28T08:56:05;10.00;89.90
21306;DHT22;10812;51.838;5.838;2023-02-28T08:58:34;9.70;88.50
21306;DHT22;10812;51.838;5.838;2023-02-28T09:01:08;9.10;88.80
21306;DHT22;10812;51.838;5.838;2023-02-28T09:03:38;8.20;88.20
21306;DHT22;10812;51.838;5.838;2023-02-28T09:06:08;8.50;89.30
21306;DHT22;10812;51.838;5.838;2023-02-28T09:08:37;8.60;89.70
21306;DHT22;10812;51.838;5.838;2023-02-28T09:11:06;8.70;90.30
21306;DHT22;10812;51.838;5.838;2023-02-28T09:13:34;8.80;90.10
21306;DHT22;10812;51.838;5.838;2023-02-28T09:16:04;9.00;89.50
21306;DHT22;10812;51.838;5.838;2023-02-28T09:18:34;8.70;90.00
21306;DHT22;10812;51.838;5.838;2023-02-28T09:21:06;8.80;90.00
21306;DHT22;10812;51.838;5.838;2023-02-28T09:23:35;9.00;90.80
21306;DHT22;10812;51.838;5.838;2023-02-28T09:26:05;8.50;90.20
21306;DHT22;10812;51.838;5.838;2023-02-28T09:28:33;8.00;89.80
21306;DHT22;10812;51.838;5.838;2023-02-28T09:31:01;8.20;90.00
21306;DHT22;10812;51.838;5.838;2023-02-28T09:33:32;8.50;89.50
21306;DHT22;10812;51.838;5.838;2023-02-28T09:36:02;8.20;89.70
21306;DHT22;10812;51.838;5.838;2023-02-28T09:38:32;8.10;89.90
21306;DHT22;10812;51.838;5.838;2023-02-28T09:41:02;8.40;89.70
21306;DHT22;10812;51.838;5.838;2023-02-28T09:43:34;8.80;89.20
21306;DHT22;10812;51.838;5.838;2023-02-28T09:46:11;8.80;88.80
21306;DHT22;10812;51.838;5.838;2023-02-28T09:48:45;9.10;89.10
21306;DHT22;10812;51.838;5.838;2023-02-28T09:51:23;9.10;87.50
21306;DHT22;10812;51.838;5.838;2023-02-28T09:53:55;8.90;87.60
21306;DHT22;10812;51.838;5.838;2023-02-28T09:56:31;8.50;89.10
21306;DHT22;10812;51.838;5.838;2023-02-28T09:59:04;8.80;88.70
21306;DHT22;10812;51.838;5.838;2023-02-28T10:01:39;9.00;87.90
21306;DHT22;10812;51.838;5.838;2023-02-28T10:04:16;9.40;86.40
21306;DHT22;10812;51.838;5.838;2023-02-28T10:06:49;8.90;84.70
21306;DHT22;10812;51.838;5.838;2023-02-28T10:09:21;8.20;86.20
21306;DHT22;10812;51.838;5.838;2023-02-28T10:11:52;7.40;87.40
21306;DHT22;10812;51.838;5.838;2023-02-28T10:14:26;6.70;89.70
21306;DHT22;10812;51.838;5.838;2023-02-28T10:16:59;6.10;90.00
21306;DHT22;10812;51.838;5.838;2023-02-28T10:19:33;5.70;90.80
21306;DHT22;10812;51.838;5.838;2023-02-28T10:22:08;5.40;91.00
21306;DHT22;10812;51.838;5.838;2023-02-28T10:24:42;5.30;91.40
21306;DHT22;10812;51.838;5.838;2023-02-28T10:27:15;5.30;91.30
21306;DHT22;10812;51.838;5.838;2023-02-28T10:29:45;5.00;91.60
21306;DHT22;10812;51.838;5.838;2023-02-28T10:32:17;5.00;91.60
21306;DHT22;10812;51.838;5.838;2023-02-28T10:34:50;5.00;91.50
21306;DHT22;10812;51.838;5.838;2023-02-28T10:37:20;5.10;91.80
21306;DHT22;10812;51.838;5.838;2023-02-28T10:39:49;5.00;91.40
21306;DHT22;10812;51.838;5.838;2023-02-28T10:42:23;4.90;91.20
21306;DHT22;10812;51.838;5.838;2023-02-28T10:45:06;4.90;91.70
21306;DHT22;10812;51.838;5.838;2023-02-28T10:47:35;4.90;92.00
21306;DHT22;10812;51.838;5.838;2023-02-28T10:50:08;4.90;92.20
21306;DHT22;10812;51.838;5.838;2023-02-28T10:52:54;5.00;92.20
21306;DHT22;10812;51.838;5.838;2023-02-28T10:55:25;5.00;92.30
21306;DHT22;10812;51.838;5.838;2023-02-28T10:57:53;5.10;92.10
21306;DHT22;10812;51.838;5.838;2023-02-28T11:00:23;5.10;92.40
21306;DHT22;10812;51.838;5.838;2023-02-28T11:02:52;5.10;92.00
21306;DHT22;10812;51.838;5.838;2023-02-28T11:05:28;4.80;91.90
21306;DHT22;10812;51.838;5.838;2023-02-28T11:08:04;5.00;92.60
21306;DHT22;10812;51.838;5.838;2023-02-28T11:10:36;4.90;92.30
21306;DHT22;10812;51.838;5.838;2023-02-28T11:13:05;4.80;92.40
21306;DHT22;10812;51.838;5.838;2023-02-28T11:15:34;5.00;92.60
21306;DHT22;10812;51.838;5.838;2023-02-28T11:18:14;4.90;92.10
21306;DHT22;10812;51.838;5.838;2023-02-28T11:20:48;4.90;92.20
21306;DHT22;10812;51.838;5.838;2023-02-28T11:23:18;4.80;92.60
21306;DHT22;10812;51.838;5.838;2023-02-28T11:25:51;4.90;92.70
21306;DHT22;10812;51.838;5.838;2023-02-28T11:28:27;5.00;92.20
21306;DHT22;10812;51.838;5.838;2023-02-28T11:31:05;5.00;92.80
21306;DHT22;10812;51.838;5.838;2023-02-28T11:33:41;5.00;93.00
21306;DHT22;10812;51.838;5.838;2023-02-28T11:36:14;5.10;93.00
21306;DHT22;10812;51.838;5.838;2023-02-28T11:38:47;5.20;92.60
21306;DHT22;10812;51.838;5.838;2023-02-28T11:41:30;5.10;92.30
21306;DHT22;10812;51.838;5.838;2023-02-28T11:44:13;5.20;92.60
21306;DHT22;10812;51.838;5.838;2023-02-28T11:46:47;5.30;92.30
21306;DHT22;10812;51.838;5.838;2023-02-28T11:49:28;5.40;91.90
21306;DHT22;10812;51.838;5.838;2023-02-28T11:52:01;5.30;92.30
21306;DHT22;10812;51.838;5.838;2023-02-28T11:54:48;5.30;92.20
21306;DHT22;10812;51.838;5.838;2023-02-28T11:57:35;5.30;91.80
21306;DHT22;10812;51.838;5.838;2023-02-28T12:00:19;5.30;92.20
21306;DHT22;10812;51.838;5.838;2023-02-28T12:02:59;5.30;92.70
21306;DHT22;10812;51.838;5.838;2023-02-28T12:05:35;5.20;92.70
21306;DHT22;10812;51.838;5.838;2023-02-28T12:08:15;5.40;93.10
21306;DHT22;10812;51.838;5.838;2023-02-28T12:10:57;5.40;92.80
21306;DHT22;10812;51.838;5.838;2023-02-28T12:13:36;5.30;92.50
21306;DHT22;10812;51.838;5.838;2023-02-28T12:16:24;5.20;92.80
21306;DHT22;10812;51.838;5.838;2023-02-28T12:19:04;5.40;92.90
21306;DHT22;10812;51.838;5.838;2023-02-28T12:21:46;5.40;92.30
21306;DHT22;10812;51.838;5.838;2023-02-28T12:24:26;5.30;92.10
21306;DHT22;10812;51.838;5.838;2023-02-28T12:27:00;5.40;92.50
21306;DHT22;10812;51.838;5.838;2023-02-28T12:29:34;5.50;92.40
21306;DHT22;10812;51.838;5.838;2023-02-28T12:32:14;5.50;91.90
21306;DHT22;10812;51.838;5.838;2023-02-28T12:34:46;5.50;92.30
21306;DHT22;10812;51.838;5.838;2023-02-28T12:37:29;5.60;92.60
21306;DHT22;10812;51.838;5.838;2023-02-28T12:40:02;5.50;92.60
21306;DHT22;10812;51.838;5.838;2023-02-28T12:42:35;5.50;92.00
21306;DHT22;10812;51.838;5.838;2023-02-28T12:45:10;5.50;91.30
21306;DHT22;10812;51.838;5.838;2023-02-28T12:47:41;5.60;91.60
21306;DHT22;10812;51.838;5.838;2023-02-28T12:50:12;5.60;91.50
21306;DHT22;10812;51.838;5.838;2023-02-28T12:52:49;5.60;91.90
21306;DHT22;10812;51.838;5.838;2023-02-28T12:55:26;5.50;91.80
21306;DHT22;10812;51.838;5.838;2023-02-28T12:58:03;5.60;91.70
21306;DHT22;10812;51.838;5.838;2023-02-28T13:00:36;5.60;91.50
21306;DHT22;10812;51.838;5.838;2023-02-28T13:03:37;5.50;92.20
21306;DHT22;10812;51.838;5.838;2023-02-28T13:14:03;5.70;92.20
21306;DHT22;10812;51.838;5.838;2023-02-28T13:16:53;5.80;92.70
21306;DHT22;10812;51.838;5.838;2023-02-28T13:19:24;5.90;92.40
21306;DHT22;10812;51.838;5.838;2023-02-28T13:21:53;5.90;92.30
21306;DHT22;10812;51.838;5.838;2023-02-28T13:24:43;5.90;92.40
21306;DHT22;10812;51.838;5.838;2023-02-28T13:27:22;5.90;92.60
21306;DHT22;10812;51.838;5.838;2023-02-28T13:29:52;5.90;92.40
21306;DHT22;10812;51.838;5.838;2023-02-28T13:32:43;6.00;92.70
21306;DHT22;10812;51.838;5.838;2023-02-28T13:35:43;5.90;91.60
21306;DHT22;10812;51.838;5.838;2023-02-28T13:38:37;5.90;91.40
21306;DHT22;10812;51.838;5.838;2023-02-28T13:41:42;6.00;91.30
21306;DHT22;10812;51.838;5.838;2023-02-28T13:44:11;6.00;91.60
21306;DHT22;10812;51.838;5.838;2023-02-28T13:47:21;5.90;91.60
21306;DHT22;10812;51.838;5.838;2023-02-28T13:49:53;5.70;91.70
21306;DHT22;10812;51.838;5.838;2023-02-28T13:52:23;5.90;92.00
21306;DHT22;10812;51.838;5.838;2023-02-28T13:55:12;5.80;91.90
21306;DHT22;10812;51.838;5.838;2023-02-28T13:57:57;5.60;92.20
21306;DHT22;10812;51.838;5.838;2023-02-28T14:00:34;5.70;92.70
21306;DHT22;10812;51.838;5.838;2023-02-28T14:03:22;5.70;92.30
21306;DHT22;10812;51.838;5.838;2023-02-28T14:08:57;5.70;92.50
21306;DHT22;10812;51.838;5.838;2023-02-28T14:11:30;5.90;92.50
21306;DHT22;10812;51.838;5.838;2023-02-28T14:13:59;6.00;92.50
21306;DHT22;10812;51.838;5.838;2023-02-28T14:16:35;6.00;92.80
21306;DHT22;10812;51.838;5.838;2023-02-28T14:19:11;5.80;92.70
21306;DHT22;10812;51.838;5.838;2023-02-28T14:21:47;5.80;92.50
21306;DHT22;10812;51.838;5.838;2023-02-28T14:24:46;5.80;92.50
21306;DHT22;10812;51.838;5.838;2023-02-28T14:27:29;5.90;92.00
21306;DHT22;10812;51.838;5.838;2023-02-28T14:30:24;5.90;92.40
21306;DHT22;10812;51.838;5.838;2023-02-28T14:33:01;5.80;92.40
21306;DHT22;10812;51.838;5.838;2023-02-28T14:35:47;5.80;92.40
21306;DHT22;10812;51.838;5.838;2023-02-28T14:38:20;5.80;92.60
21306;DHT22;10812;51.838;5.838;2023-02-28T14:40:52;5.70;92.20
21306;DHT22;10812;51.838;5.838;2023-02-28T14:43:24;5.80;92.30
21306;DHT22;10812;51.838;5.838;2023-02-28T14:45:54;5.70;92.20
21306;DHT22;10812;51.838;5.838;2023-02-28T14:56:30;5.90;92.50
21306;DHT22;10812;51.838;5.838;2023-02-28T14:59:00;6.00;92.80
21306;DHT22;10812;51.838;5.838;2023-02-28T15:01:29;6.00;92.70
21306;DHT22;10812;51.838;5.838;2023-02-28T15:04:04;6.10;92.70
21306;DHT22;10812;51.838;5.838;2023-02-28T15:06:33;5.90;92.40
21306;DHT22;10812;51.838;5.838;2023-02-28T15:09:14;5.90;92.80
21306;DHT22;10812;51.838;5.838;2023-02-28T15:11:46;5.90;92.90
21306;DHT22;10812;51.838;5.838;2023-02-28T15:14:18;6.00;92.90
21306;DHT22;10812;51.838;5.838;2023-02-28T15:16:50;5.90;92.90
21306;DHT22;10812;51.838;5.838;2023-02-28T15:19:23;5.80;93.20
21306;DHT22;10812;51.838;5.838;2023-02-28T15:33:22;5.90;93.10
21306;DHT22;10812;51.838;5.838;2023-02-28T15:35:51;5.90;92.80
21306;DHT22;10812;51.838;5.838;2023-02-28T15:38:23;5.80;92.90
21306;DHT22;10812;51.838;5.838;2023-02-28T15:40:52;5.70;93.30
21306;DHT22;10812;51.838;5.838;2023-02-28T15:43:25;5.70;93.70
21306;DHT22;10812;51.838;5.838;2023-02-28T15:45:57;5.80;93.30
21306;DHT22;10812;51.838;5.838;2023-02-28T15:48:30;5.90;93.30
21306;DHT22;10812;51.838;5.838;2023-02-28T15:51:02;5.80;93.50
21306;DHT22;10812;51.838;5.838;2023-02-28T15:53:36;5.80;93.40
21306;DHT22;10812;51.838;5.838;2023-02-28T15:56:21;5.80;92.80
21306;DHT22;10812;51.838;5.838;2023-02-28T15:58:50;5.70;93.30
21306;DHT22;10812;51.838;5.838;2023-02-28T16:01:24;5.70;93.30
21306;DHT22;10812;51.838;5.838;2023-02-28T16:03:59;5.70;93.00
21306;DHT22;10812;51.838;5.838;2023-02-28T16:06:35;5.70;93.00
21306;DHT22;10812;51.838;5.838;2023-02-28T16:09:05;5.70;93.40
21306;DHT22;10812;51.838;5.838;2023-02-28T16:11:38;5.70;93.30
21306;DHT22;10812;51.838;5.838;2023-02-28T16:14:16;5.60;93.40
21306;DHT22;10812;51.838;5.838;2023-02-28T16:16:46;5.70;93.80
21306;DHT22;10812;51.838;5.838;2023-02-28T16:19:17;5.60;93.80
21306;DHT22;10812;51.838;5.838;2023-02-28T16:21:45;5.50;93.80
21306;DHT22;10812;51.838;5.838;2023-02-28T16:24:14;5.50;93.70
21306;DHT22;10812;51.838;5.838;2023-02-28T16:26:46;5.50;93.90
21306;DHT22;10812;51.838;5.838;2023-02-28T16:29:19;5.40;94.00
21306;DHT22;10812;51.838;5.838;2023-02-28T16:31:50;5.40;94.30
21306;DHT22;10812;51.838;5.838;2023-02-28T16:34:22;5.40;94.10
21306;DHT22;10812;51.838;5.838;2023-02-28T16:36:50;5.40;94.60
21306;DHT22;10812;51.838;5.838;2023-02-28T16:39:18;5.30;94.30
21306;DHT22;10812;51.838;5.838;2023-02-28T16:41:49;5.30;94.70
21306;DHT22;10812;51.838;5.838;2023-02-28T16:44:27;5.30;94.90
21306;DHT22;10812;51.838;5.838;2023-02-28T16:47:01;5.20;95.10
21306;DHT22;10812;51.838;5.838;2023-02-28T16:49:33;5.20;95.20
21306;DHT22;10812;51.838;5.838;2023-02-28T16:52:01;5.20;95.40
21306;DHT22;10812;51.838;5.838;2023-02-28T16:54:29;5.10;95.40
21306;DHT22;10812;51.838;5.838;2023-02-28T16:56:57;5.10;95.70
21306;DHT22;10812;51.838;5.838;2023-02-28T16:59:26;5.10;96.00
21306;DHT22;10812;51.838;5.838;2023-02-28T17:01:55;5.00;96.10
21306;DHT22;10812;51.838;5.838;2023-02-28T17:04:24;4.90;96.00